Time;durP1;ratioP1;P1;durP2;ratioP2;P2;SDS_P1;SDS_P2;PMS_P1;PMS_P2;Temp;Humidity;BMP_temperature;BMP_pressure;BME280_temperature;BME280_humidity;BME280_pressure;Samples;Min_cycle;Max_cycle;Signal;HPM_P1;HPM_P2
2021/10/20 00:02:26;;;;;;;20.92;16.23;;;;;;;12.39;80.64;101014.44;4955782;29;20035;-80
2021/10/20 00:04:54;;;;;;;24.98;15.75;;;;;;;12.36;80.99;101010.22;4955390;29;20051;-80
2021/10/20 00:07:21;;;;;;;24.00;16.92;;;;;;;12.40;81.18;101017.00;4955461;29;20486;-79
2021/10/20 00:09:48;;;;;;;23.83;17.05;;;;;;;12.44;80.59;101013.31;4938512;29;20039;-79
2021/10/20 00:12:15;;;;;;;19.08;15.13;;;;;;;12.47;80.17;101007.13;4955543;29;20483;-80
2021/10/20 00:14:42;;;;;;;21.33;15.93;;;;;;;12.44;80.52;101018.56;4955346;29;20035;-79
2021/10/20 00:17:09;;;;;;;22.88;16.40;;;;;;;12.48;80.17;101004.44;4955382;29;20043;-80
2021/10/20 00:19:36;;;;;;;20.00;16.05;;;;;;;12.36;80.53;101009.34;4955610;29;20051;-79
2021/10/20 00:22:03;;;;;;;22.55;16.50;;;;;;;12.16;81.84;101010.25;4955414;29;20047;-80
2021/10/20 00:24:29;;;;;;;20.58;16.13;;;;;;;12.01;82.79;101007.41;4955617;29;20936;-80
2021/10/20 00:26:56;;;;;;;19.83;15.70;;;;;;;11.97;83.14;101004.97;4955357;29;20391;-80
2021/10/20 00:29:23;;;;;;;22.15;15.93;;;;;;;11.99;82.50;101001.41;4955655;29;20162;-82
2021/10/20 00:31:50;;;;;;;18.15;14.95;;;;;;;11.97;82.83;101000.59;4955681;29;20051;-82
2021/10/20 00:34:17;;;;;;;18.83;14.85;;;;;;;11.96;82.37;100998.91;4968905;29;20023;-82
2021/10/20 00:36:43;;;;;;;22.40;16.17;;;;;;;11.86;83.07;101000.22;4977938;28;20039;-81
2021/10/20 00:39:10;;;;;;;19.45;15.30;;;;;;;11.93;82.68;100995.56;4972162;29;20051;-82
2021/10/20 00:41:37;;;;;;;19.45;14.73;;;;;;;11.88;82.38;100990.56;4973103;29;20107;-82
2021/10/20 00:44:04;;;;;;;17.65;14.90;;;;;;;12.01;81.68;100994.31;4956526;29;20051;-81
2021/10/20 00:46:31;;;;;;;19.42;14.98;;;;;;;12.04;81.60;100994.22;4955564;29;20192;-81
2021/10/20 00:48:58;;;;;;;20.45;14.95;;;;;;;11.99;82.12;100990.94;4936775;29;20183;-80
2021/10/20 00:51:25;;;;;;;17.73;13.85;;;;;;;11.97;81.76;100989.31;4953444;29;20039;-80
2021/10/20 00:53:54;;;;;;;16.83;14.48;;;;;;;11.98;81.71;100988.38;4955264;29;20402;-81
2021/10/20 00:56:21;;;;;;;22.45;15.15;;;;;;;12.02;80.91;100982.97;4954884;29;20043;-81
2021/10/20 00:58:48;;;;;;;25.10;15.57;;;;;;;11.93;81.64;100982.50;4955315;29;20047;-81
2021/10/20 01:01:16;;;;;;;20.13;14.30;;;;;;;11.82;82.41;100982.97;4955051;28;20065;-81
2021/10/20 01:03:44;;;;;;;23.35;15.48;;;;;;;11.77;82.63;100984.91;4955050;29;20090;-81
2021/10/20 01:06:12;;;;;;;18.00;15.25;;;;;;;11.75;83.02;100982.38;4955057;29;20051;-81
2021/10/20 01:08:39;;;;;;;22.40;15.05;;;;;;;11.72;83.11;100986.91;4955477;29;20035;-81
2021/10/20 01:11:06;;;;;;;19.40;14.43;;;;;;;11.72;83.27;100984.28;4949086;29;20047;-81
2021/10/20 01:13:33;;;;;;;17.95;15.05;;;;;;;11.87;82.07;100978.41;4946462;29;20486;-79
2021/10/20 01:16:01;;;;;;;19.35;14.27;;;;;;;11.92;81.27;100976.44;4954403;29;20110;-81
2021/10/20 01:18:29;;;;;;;18.50;14.82;;;;;;;11.90;81.16;100980.91;4954769;29;20532;-80
2021/10/20 01:20:59;;;;;;;21.30;15.20;;;;;;;11.86;81.00;100975.88;4954866;29;20068;-82
2021/10/20 01:23:27;;;;;;;20.10;13.52;;;;;;;11.83;81.24;100976.84;4948984;29;20075;-81
2021/10/20 01:25:55;;;;;;;15.95;13.68;;;;;;;11.82;81.02;100977.75;4954457;29;20071;-82
2021/10/20 01:28:22;;;;;;;14.35;12.30;;;;;;;11.87;80.51;100974.94;4954587;29;20043;-81
2021/10/20 01:30:49;;;;;;;23.65;12.55;;;;;;;11.94;79.83;100974.63;4955079;29;20442;-81
2021/10/20 01:33:16;;;;;;;17.52;14.30;;;;;;;12.03;79.07;100960.28;4954879;29;20461;-81
2021/10/20 01:35:43;;;;;;;18.10;13.05;;;;;;;12.06;78.85;100968.84;4954757;29;20569;-81
2021/10/20 01:38:10;;;;;;;19.17;13.48;;;;;;;12.03;78.90;100960.28;4954266;29;20074;-79
2021/10/20 01:40:37;;;;;;;19.40;13.50;;;;;;;11.99;79.16;100962.22;4954391;29;20051;-79
2021/10/20 01:43:03;;;;;;;19.88;13.43;;;;;;;11.92;79.70;100954.69;4954287;29;20121;-80
2021/10/20 01:45:30;;;;;;;16.60;12.23;;;;;;;11.94;79.78;100960.72;4954627;29;20070;-79
2021/10/20 01:47:57;;;;;;;19.75;14.13;;;;;;;11.92;79.71;100955.53;4954196;29;20043;-79
2021/10/20 01:50:24;;;;;;;16.17;12.85;;;;;;;11.91;79.72;100945.16;4954508;29;20494;-81
2021/10/20 01:52:51;;;;;;;18.95;13.38;;;;;;;11.97;79.13;100950.94;4954179;29;20106;-81
2021/10/20 01:55:18;;;;;;;17.35;12.80;;;;;;;11.96;79.11;100943.19;4954249;29;20482;-81
2021/10/20 01:57:46;;;;;;;19.67;14.00;;;;;;;11.98;78.82;100949.19;4954145;29;20049;-81
2021/10/20 02:00:14;;;;;;;16.15;12.90;;;;;;;12.00;78.51;100945.59;4936740;29;20387;-79
2021/10/20 02:02:41;;;;;;;17.23;13.38;;;;;;;12.00;78.72;100942.16;4954139;29;20051;-79
2021/10/20 02:05:10;;;;;;;19.17;15.90;;;;;;;11.97;78.82;100944.88;4953922;29;20067;-81
2021/10/20 02:07:37;;;;;;;18.20;13.70;;;;;;;11.88;79.44;100934.84;4954137;29;20047;-80
2021/10/20 02:10:13;;;;;;;18.25;14.32;;;;;;;11.82;79.63;100930.72;4953665;29;20502;-80
2021/10/20 02:12:41;;;;;;;16.60;13.25;;;;;;;11.80;79.81;100938.59;4956278;28;20133;-81
2021/10/20 02:15:08;;;;;;;18.42;14.18;;;;;;;11.77;80.16;100930.06;4957881;29;20043;-81
2021/10/20 02:17:41;;;;;;;19.77;14.90;;;;;;;11.82;80.46;100929.88;4958445;29;20055;-80
2021/10/20 02:20:12;;;;;;;24.98;16.73;;;;;;;11.77;80.69;100922.22;4957950;29;20389;-79
2021/10/20 02:22:41;;;;;;;19.10;14.95;;;;;;;11.82;80.55;100929.88;4957973;29;20093;-79
2021/10/20 02:25:09;;;;;;;22.08;15.55;;;;;;;11.77;80.53;100928.31;4947669;29;20067;-80
2021/10/20 02:27:35;;;;;;;21.17;14.57;;;;;;;11.71;80.97;100922.50;4943520;29;20042;-79
2021/10/20 02:30:04;;;;;;;20.55;14.90;;;;;;;11.75;80.65;100924.91;4957980;29;20051;-80
2021/10/20 02:32:31;;;;;;;17.73;14.77;;;;;;;11.73;80.56;100913.69;4957920;29;20043;-80
2021/10/20 02:34:58;;;;;;;18.70;13.75;;;;;;;11.76;80.42;100910.06;4959098;29;20090;-80
2021/10/20 02:37:25;;;;;;;19.00;13.57;;;;;;;11.79;80.47;100910.81;4959078;29;20410;-80
2021/10/20 02:39:52;;;;;;;18.67;14.60;;;;;;;11.86;79.99;100906.19;4957945;29;20048;-80
2021/10/20 02:42:18;;;;;;;17.98;13.40;;;;;;;11.92;79.40;100905.06;4957270;29;20047;-80
2021/10/20 02:44:45;;;;;;;19.50;14.32;;;;;;;11.89;79.72;100903.44;4957814;29;20047;-80
2021/10/20 02:47:12;;;;;;;24.73;15.20;;;;;;;11.87;79.85;100900.03;4958491;29;20132;-80
2021/10/20 02:49:38;;;;;;;18.15;13.68;;;;;;;11.85;79.63;100899.25;4962208;29;20039;-81
2021/10/20 02:52:05;;;;;;;18.13;13.18;;;;;;;11.84;79.48;100899.34;4962753;29;20069;-80
2021/10/20 02:54:32;;;;;;;21.10;15.40;;;;;;;11.90;79.34;100893.84;4953262;29;20077;-80
2021/10/20 02:56:59;;;;;;;19.85;13.93;;;;;;;11.85;79.74;100899.25;4960582;29;20043;-80
2021/10/20 02:59:25;;;;;;;21.77;14.27;;;;;;;11.87;79.29;100893.97;4960953;29;20070;-80
2021/10/20 03:01:52;;;;;;;17.48;13.35;;;;;;;12.01;78.64;100887.19;4961159;29;20058;-80
2021/10/20 03:04:19;;;;;;;15.95;12.93;;;;;;;11.96;78.53;100886.56;4951872;29;20042;-80
2021/10/20 03:06:46;;;;;;;20.80;16.55;;;;;;;11.71;80.09;100891.16;4960138;29;20047;-79
2021/10/20 03:09:13;;;;;;;19.45;14.38;;;;;;;11.59;81.05;100894.31;4966051;29;20047;-78
2021/10/20 03:11:39;;;;;;;17.60;13.65;;;;;;;11.57;81.44;100893.53;4957861;29;20039;-79
2021/10/20 03:14:06;;;;;;;26.30;14.93;;;;;;;11.65;80.83;100891.44;4957056;29;20046;-79
2021/10/20 03:16:33;;;;;;;17.75;13.93;;;;;;;11.80;79.66;100883.75;4957329;29;20498;-79
2021/10/20 03:19:00;;;;;;;16.27;13.05;;;;;;;11.81;79.15;100884.59;4957874;29;20402;-79
2021/10/20 03:21:27;;;;;;;17.23;13.20;;;;;;;11.78;79.42;100887.38;4956717;29;20050;-79
2021/10/20 03:23:53;;;;;;;16.10;13.85;;;;;;;11.75;79.69;100895.31;4939341;29;20047;-81
2021/10/20 03:26:20;;;;;;;18.80;13.50;;;;;;;11.71;79.78;100896.38;4956528;29;20047;-80
2021/10/20 03:28:47;;;;;;;21.95;14.30;;;;;;;11.71;79.89;100896.38;4952300;29;20054;-80
2021/10/20 03:31:13;;;;;;;19.23;14.30;;;;;;;11.67;80.10;100905.28;4956448;29;20079;-80
2021/10/20 03:33:40;;;;;;;18.58;13.90;;;;;;;11.63;80.29;100893.25;4956413;29;20497;-80
2021/10/20 03:36:07;;;;;;;16.60;12.85;;;;;;;11.62;80.49;100896.81;4956452;29;20106;-78
2021/10/20 03:38:34;;;;;;;18.13;13.73;;;;;;;11.54;81.01;100894.50;4956931;29;20415;-80
2021/10/20 03:41:01;;;;;;;23.58;14.95;;;;;;;11.47;81.74;100909.59;4941592;29;20467;-80
2021/10/20 03:43:37;;;;;;;20.08;14.45;;;;;;;11.37;82.37;100897.00;4937696;29;20039;-78
2021/10/20 03:46:04;;;;;;;20.02;15.18;;;;;;;11.35;83.07;100902.31;4937356;29;20035;-78
2021/10/20 03:48:31;;;;;;;19.75;14.15;;;;;;;11.34;83.52;100907.56;4948358;29;20043;-79
2021/10/20 03:50:58;;;;;;;21.75;15.57;;;;;;;11.51;82.70;100898.13;4939466;29;20051;-79
2021/10/20 03:53:24;;;;;;;19.17;15.18;;;;;;;11.51;82.77;100905.94;4955442;29;20071;-79
2021/10/20 03:55:52;;;;;;;21.65;14.88;;;;;;;11.58;82.63;100903.06;4949883;29;20490;-80
2021/10/20 03:58:18;;;;;;;22.73;16.38;;;;;;;11.60;82.42;100896.84;4956017;29;20098;-80
2021/10/20 04:00:45;;;;;;;22.48;16.30;;;;;;;11.70;81.95;100905.13;4956002;29;20035;-80
2021/10/20 04:03:12;;;;;;;21.48;16.10;;;;;;;11.71;82.06;100905.06;4956053;29;20047;-81
2021/10/20 04:05:39;;;;;;;19.20;15.43;;;;;;;11.68;82.12;100901.75;4955898;29;20071;-80
2021/10/20 04:08:06;;;;;;;21.88;15.45;;;;;;;11.68;82.42;100901.75;4956230;29;20447;-80
2021/10/20 04:10:33;;;;;;;23.38;15.00;;;;;;;11.63;82.87;100895.88;4956330;29;20070;-79
2021/10/20 04:13:00;;;;;;;19.98;15.70;;;;;;;11.64;82.65;100906.25;4955950;29;20142;-80
2021/10/20 04:15:32;;;;;;;22.70;16.35;;;;;;;11.66;82.91;100898.34;4955883;29;20043;-80
2021/10/20 04:17:59;;;;;;;20.20;15.35;;;;;;;11.63;82.79;100893.25;4955949;29;20036;-80
2021/10/20 04:20:28;;;;;;;19.30;14.73;;;;;;;11.63;83.14;100906.31;4955870;29;20044;-81
2021/10/20 04:22:55;;;;;;;18.52;15.30;;;;;;;11.70;82.72;100905.13;4956454;29;20122;-81
2021/10/20 04:25:22;;;;;;;21.10;16.90;;;;;;;11.72;82.78;100901.56;4955682;29;20118;-80
2021/10/20 04:27:50;;;;;;;24.70;16.50;;;;;;;11.76;82.38;100897.88;4936804;29;20076;-78
2021/10/20 04:30:19;;;;;;;19.70;15.55;;;;;;;11.75;82.26;100903.16;4944076;29;20043;-81
2021/10/20 04:32:46;;;;;;;19.80;14.50;;;;;;;11.79;81.95;100907.34;4937093;29;20447;-81
2021/10/20 04:35:14;;;;;;;17.27;13.57;;;;;;;11.65;82.51;100909.69;4945644;28;20078;-81
2021/10/20 04:37:40;;;;;;;18.63;15.07;;;;;;;11.52;83.45;100907.63;4955156;29;20383;-80
2021/10/20 04:40:10;;;;;;;17.92;14.65;;;;;;;11.54;82.97;100905.78;4952023;29;20058;-79
2021/10/20 04:42:38;;;;;;;19.73;14.90;;;;;;;11.51;83.10;100905.94;4945681;28;20101;-78
2021/10/20 04:45:05;;;;;;;17.23;13.60;;;;;;;11.40;83.38;100913.41;4954240;29;20047;-79
2021/10/20 04:47:31;;;;;;;22.48;15.82;;;;;;;11.27;84.30;100912.19;4954786;29;20047;-80
2021/10/20 04:50:00;;;;;;;19.83;15.25;;;;;;;11.14;85.55;100913.66;4954333;29;20039;-79
2021/10/20 04:52:27;;;;;;;19.13;13.98;;;;;;;11.05;87.13;100912.25;4949085;29;20490;-80
2021/10/20 04:54:54;;;;;;;19.90;14.23;;;;;;;10.93;87.25;100902.34;4949021;29;20039;-79
2021/10/20 04:57:21;;;;;;;20.50;14.23;;;;;;;10.79;88.22;100904.66;4946974;29;20403;-79
2021/10/20 04:59:48;;;;;;;21.80;17.52;;;;;;;10.65;89.87;100905.19;4933861;29;20141;-79
2021/10/20 05:02:14;;;;;;;22.45;17.33;;;;;;;10.51;91.11;100903.13;4945271;29;20542;-80
2021/10/20 05:04:41;;;;;;;22.90;17.88;;;;;;;10.35;91.44;100897.69;4941786;29;20050;-80
2021/10/20 05:07:11;;;;;;;24.35;17.50;;;;;;;10.26;90.74;100895.41;4942010;29;20047;-80
2021/10/20 05:09:38;;;;;;;21.35;17.10;;;;;;;10.28;91.13;100896.22;4949496;28;20047;-82
2021/10/20 05:12:06;;;;;;;23.23;17.20;;;;;;;10.19;91.14;100892.16;4934745;29;20139;-79
2021/10/20 05:14:32;;;;;;;21.13;17.38;;;;;;;10.22;91.64;100893.78;4945434;29;20762;-79
2021/10/20 05:16:59;;;;;;;24.10;17.98;;;;;;;10.15;92.71;100889.72;4951565;29;20043;-81
2021/10/20 05:19:26;;;;;;;20.48;16.45;;;;;;;10.19;93.12;100888.72;4952429;29;20040;-82
2021/10/20 05:21:53;;;;;;;24.40;18.70;;;;;;;10.21;92.95;100884.28;4948162;29;20090;-77
2021/10/20 05:24:19;;;;;;;26.15;16.92;;;;;;;10.18;93.30;100881.81;4950488;29;20043;-80
2021/10/20 05:26:46;;;;;;;23.30;16.75;;;;;;;10.10;93.90;100884.69;4947875;29;20387;-79
2021/10/20 05:29:13;;;;;;;20.77;15.73;;;;;;;10.11;94.08;100891.59;4945881;29;20058;-80
2021/10/20 05:31:40;;;;;;;24.35;15.73;;;;;;;10.16;93.92;100888.81;4934542;29;20045;-77
2021/10/20 05:34:06;;;;;;;24.15;17.30;;;;;;;10.04;94.44;100889.28;4951931;29;20070;-78
2021/10/20 05:36:33;;;;;;;21.70;16.25;;;;;;;10.11;94.29;100881.16;4951883;29;20117;-76
2021/10/20 05:39:00;;;;;;;27.63;16.90;;;;;;;10.00;95.31;100885.09;4951929;29;20039;-78
2021/10/20 05:41:26;;;;;;;22.23;16.00;;;;;;;9.92;95.98;100891.44;4951473;29;20054;-78
2021/10/20 05:43:53;;;;;;;33.35;17.10;;;;;;;9.89;96.50;100890.69;4953594;29;20118;-78
2021/10/20 05:46:20;;;;;;;27.60;17.83;;;;;;;10.04;95.36;100887.53;4953865;29;20040;-78
2021/10/20 05:48:47;;;;;;;31.42;20.20;;;;;;;10.13;93.81;100892.41;4952859;29;20195;-80
2021/10/20 05:51:14;;;;;;;24.35;17.95;;;;;;;10.22;92.96;100899.84;4953552;29;20074;-81
2021/10/20 05:53:40;;;;;;;24.52;19.13;;;;;;;10.23;92.52;100893.78;4954146;29;20102;-81
2021/10/20 05:56:08;;;;;;;28.42;19.13;;;;;;;10.16;92.94;100892.28;4953998;29;20375;-83
2021/10/20 05:58:35;;;;;;;24.08;18.77;;;;;;;10.34;91.97;100893.38;4954092;29;20047;-82
2021/10/20 06:01:02;;;;;;;25.48;18.55;;;;;;;10.22;92.57;100893.78;4954086;28;20047;-81
2021/10/20 06:03:29;;;;;;;21.38;15.63;;;;;;;10.09;93.25;100892.56;4953742;29;20177;-83
2021/10/20 06:05:56;;;;;;;19.95;14.90;;;;;;;10.15;92.93;100889.72;4954002;29;20043;-85
2021/10/20 06:08:23;;;;;;;22.60;15.00;;;;;;;10.29;92.94;100894.47;4953892;29;20395;-81
2021/10/20 06:10:50;;;;;;;23.92;15.00;;;;;;;10.47;92.22;100883.31;4954185;29;20047;-82
2021/10/20 06:13:17;;;;;;;24.40;17.23;;;;;;;10.53;91.79;100887.44;4930135;29;20043;-82
2021/10/20 06:15:44;;;;;;;24.88;15.32;;;;;;;10.73;91.26;100890.09;4954379;29;20098;-83
2021/10/20 06:18:12;;;;;;;23.63;17.75;;;;;;;10.79;90.55;100895.06;4954318;29;20046;-80
2021/10/20 06:20:39;;;;;;;29.98;20.20;;;;;;;10.85;89.85;100888.75;4954115;29;20043;-80
2021/10/20 06:23:06;;;;;;;25.52;18.40;;;;;;;10.88;90.03;100889.47;4953954;29;20506;-79
2021/10/20 06:25:33;;;;;;;28.75;20.52;;;;;;;10.99;89.21;100902.91;4953684;29;20478;-89
2021/10/20 06:28:00;;;;;;;27.95;19.27;;;;;;;11.04;88.71;100904.50;4953737;29;20130;-83
2021/10/20 06:30:27;;;;;;;30.65;21.27;;;;;;;11.07;88.83;100904.34;4935946;29;20047;-80
2021/10/20 06:32:54;;;;;;;29.27;21.98;;;;;;;11.19;88.09;100912.53;4954118;29;20089;-80
2021/10/20 06:35:20;;;;;;;33.60;21.80;;;;;;;11.38;87.05;100903.91;4953016;29;20099;-80
2021/10/20 06:37:51;;;;;;;27.95;21.45;;;;;;;11.41;86.45;100909.03;4953546;29;20039;-80
2021/10/20 06:40:18;;;;;;;30.98;20.75;;;;;;;11.54;85.98;100902.34;4952492;29;20050;-80
2021/10/20 06:42:45;;;;;;;24.50;16.98;;;;;;;11.60;85.94;100911.66;4951881;29;20106;-80
2021/10/20 06:45:12;;;;;;;21.55;16.10;;;;;;;11.63;86.30;100915.00;4921189;29;20131;-80
2021/10/20 06:47:39;;;;;;;17.27;13.68;;;;;;;11.65;86.36;100909.69;4951907;29;20498;-81
2021/10/20 06:50:06;;;;;;;19.83;12.88;;;;;;;11.74;85.90;100910.16;4952657;29;20453;-80
2021/10/20 06:52:33;;;;;;;20.92;12.85;;;;;;;11.75;87.15;100908.38;4951774;29;20507;-80
2021/10/20 06:55:00;;;;;;;22.45;12.68;;;;;;;11.79;86.38;100910.81;4952530;29;20039;-80
2021/10/20 06:57:27;;;;;;;20.90;11.63;;;;;;;12.04;85.04;100914.97;4952980;28;20506;-80
2021/10/20 06:59:54;;;;;;;20.13;13.65;;;;;;;12.06;85.91;100905.28;4957380;29;20512;-78
2021/10/20 07:02:20;;;;;;;18.30;13.63;;;;;;;12.17;86.35;100913.47;4957248;29;21950;-81
2021/10/20 07:04:47;;;;;;;25.67;14.30;;;;;;;12.34;85.13;100917.91;4952389;29;20054;-78
2021/10/20 07:07:15;;;;;;;22.83;15.60;;;;;;;12.47;83.81;100921.66;4962206;29;20051;-80
2021/10/20 07:09:42;;;;;;;22.83;16.35;;;;;;;12.56;83.18;100922.97;4962930;29;20102;-78
2021/10/20 07:12:09;;;;;;;24.08;16.95;;;;;;;12.65;82.82;100919.09;4959304;29;20410;-78
2021/10/20 07:14:36;;;;;;;23.60;17.52;;;;;;;12.84;82.99;100917.31;4956922;29;20491;-77
2021/10/20 07:17:05;;;;;;;25.60;19.35;;;;;;;12.96;81.94;100921.91;4956986;29;20047;-80
2021/10/20 07:19:32;;;;;;;27.08;20.08;;;;;;;13.05;81.29;100916.25;4956528;29;20130;-80
2021/10/20 07:21:59;;;;;;;27.58;20.17;;;;;;;13.14;80.42;100919.31;4957256;29;20043;-81
2021/10/20 07:24:26;;;;;;;30.33;20.98;;;;;;;13.24;78.22;100937.13;4956484;29;20043;-81
2021/10/20 07:26:53;;;;;;;34.00;21.92;;;;;;;13.32;78.47;100919.28;4957060;29;20087;-81
2021/10/20 07:29:20;;;;;;;33.03;21.08;;;;;;;13.48;76.89;100929.81;4956238;29;20370;-81
2021/10/20 07:31:47;;;;;;;31.92;23.83;;;;;;;13.55;76.71;100925.94;4956931;29;20442;-81
2021/10/20 07:34:14;;;;;;;35.20;26.00;;;;;;;13.73;75.66;100928.53;4956536;29;20094;-80
2021/10/20 07:36:42;;;;;;;41.75;27.60;;;;;;;13.88;74.20;100927.75;4956877;29;20048;-79
2021/10/20 07:39:09;;;;;;;41.58;29.35;;;;;;;14.03;73.09;100929.53;4956516;29;20062;-81
2021/10/20 07:41:36;;;;;;;35.88;27.83;;;;;;;14.18;72.43;100925.25;4956636;29;20047;-81
2021/10/20 07:44:03;;;;;;;40.50;27.00;;;;;;;14.34;71.52;100928.75;4956252;29;20043;-81
2021/10/20 07:46:30;;;;;;;39.55;27.20;;;;;;;14.43;71.28;100919.50;4956305;29;20043;-80
2021/10/20 07:48:56;;;;;;;36.72;27.45;;;;;;;14.59;70.20;100919.53;4956353;29;20043;-80
2021/10/20 07:51:23;;;;;;;35.88;28.58;;;;;;;14.47;69.13;100915.81;4956493;29;20047;-79
2021/10/20 07:53:50;;;;;;;38.97;28.40;;;;;;;14.71;68.57;100918.00;4956602;29;20071;-81
2021/10/20 07:56:17;;;;;;;43.55;29.23;;;;;;;14.55;70.45;100929.38;4956002;29;20051;-81
2021/10/20 07:58:44;;;;;;;38.53;27.10;;;;;;;14.55;69.51;100925.91;4955267;29;20110;-79
2021/10/20 08:01:11;;;;;;;38.30;29.77;;;;;;;14.60;71.09;100924.72;4955924;29;20043;-81
2021/10/20 08:03:38;;;;;;;38.22;29.23;;;;;;;14.37;72.37;100928.56;4949436;29;20098;-80
2021/10/20 08:06:05;;;;;;;41.47;31.95;;;;;;;14.48;73.15;100930.63;4956438;29;20502;-80
2021/10/20 08:08:32;;;;;;;45.95;33.85;;;;;;;14.36;72.48;100933.91;4956479;29;20043;-80
2021/10/20 08:10:59;;;;;;;39.72;31.38;;;;;;;14.59;69.92;100930.88;4925608;29;20460;-80
2021/10/20 08:13:25;;;;;;;36.67;29.48;;;;;;;14.51;71.16;100933.09;4953945;29;20054;-79
2021/10/20 08:15:52;;;;;;;48.08;33.78;;;;;;;14.65;70.30;100932.31;4945413;29;20127;-80
2021/10/20 08:18:19;;;;;;;40.05;28.70;;;;;;;14.58;68.13;100925.72;4937182;29;20135;-80
2021/10/20 08:20:46;;;;;;;41.97;29.17;;;;;;;14.84;67.70;100924.25;4938422;29;20046;-79
2021/10/20 08:23:13;;;;;;;36.03;27.80;;;;;;;14.86;67.01;100922.38;4944666;29;20055;-80
2021/10/20 08:25:40;;;;;;;39.88;28.02;;;;;;;15.03;66.45;100924.91;4951567;29;20050;-79
2021/10/20 08:28:07;;;;;;;31.05;26.52;;;;;;;15.04;66.53;100923.97;4957576;29;20450;-80
2021/10/20 08:30:34;;;;;;;37.33;26.20;;;;;;;15.05;66.34;100923.00;4957944;29;20043;-79
2021/10/20 08:33:02;;;;;;;38.28;27.38;;;;;;;15.35;65.48;100919.53;4957435;29;20098;-80
2021/10/20 08:35:30;;;;;;;34.45;25.92;;;;;;;15.35;65.69;100920.38;4955706;29;20043;-79
2021/10/20 08:38:01;;;;;;;34.97;25.90;;;;;;;15.47;65.65;100910.94;4955599;29;20058;-77
2021/10/20 08:40:34;;;;;;;38.25;26.77;;;;;;;15.58;65.45;100913.75;4954877;29;20145;-77
2021/10/20 08:43:02;;;;;;;38.00;27.58;;;;;;;15.72;65.38;100915.59;4955980;29;20218;-79
2021/10/20 08:45:30;;;;;;;37.10;28.00;;;;;;;15.89;65.38;100918.03;4955314;29;20043;-78
2021/10/20 08:47:58;;;;;;;32.70;26.80;;;;;;;16.02;65.07;100910.22;4955443;29;20047;-78
2021/10/20 08:50:31;;;;;;;34.55;27.92;;;;;;;15.61;65.19;100920.63;4955545;29;20102;-78
2021/10/20 08:52:58;;;;;;;33.40;26.92;;;;;;;15.94;64.39;100920.38;4955373;29;20055;-79
2021/10/20 08:55:25;;;;;;;39.78;29.65;;;;;;;16.45;63.12;100908.34;4955429;29;20102;-79
2021/10/20 08:57:54;;;;;;;39.15;28.50;;;;;;;16.10;64.67;100905.34;4955212;29;20526;-80
2021/10/20 09:00:22;;;;;;;41.03;27.95;;;;;;;16.08;64.92;100899.31;4955544;29;20501;-79
2021/10/20 09:02:50;;;;;;;39.58;27.95;;;;;;;16.30;64.12;100904.09;4955001;29;20391;-81
2021/10/20 09:05:23;;;;;;;33.17;26.35;;;;;;;16.49;63.41;100898.47;4955266;28;20606;-80
2021/10/20 09:07:53;;;;;;;30.73;24.92;;;;;;;17.06;61.10;100900.91;4937780;29;20401;-78
2021/10/20 09:10:22;;;;;;;29.58;21.95;;;;;;;17.47;59.68;100900.75;4955570;29;20051;-76
2021/10/20 09:12:50;;;;;;;28.73;20.48;;;;;;;17.43;58.68;100895.81;4954573;29;20050;-80
2021/10/20 09:15:21;;;;;;;27.83;20.75;;;;;;;17.31;59.58;100901.88;4955027;29;20039;-78
2021/10/20 09:17:49;;;;;;;27.98;19.90;;;;;;;17.25;59.30;100893.44;4954876;29;20043;-78
2021/10/20 09:20:18;;;;;;;24.02;18.58;;;;;;;17.27;58.60;100891.56;4955289;29;20442;-79
2021/10/20 09:23:12;;;;;;;22.73;19.50;;;;;;;17.55;57.97;100890.53;4954202;29;20506;-80
2021/10/20 09:25:38;;;;;;;28.92;19.20;;;;;;;17.65;57.43;100880.19;4954826;29;20048;-80
2021/10/20 09:28:25;;;;;;;21.88;18.77;;;;;;;17.17;58.58;100879.97;4954779;29;20078;-80
2021/10/20 09:30:57;;;;;;;22.10;17.48;;;;;;;17.45;57.66;100883.34;4954746;29;20446;-80
2021/10/20 09:33:26;;;;;;;23.75;17.65;;;;;;;17.54;57.92;100877.47;4954637;28;20074;-80
2021/10/20 09:35:52;;;;;;;23.95;17.10;;;;;;;17.68;57.05;100874.69;4955159;29;20435;-79
2021/10/20 09:38:20;;;;;;;17.33;13.77;;;;;;;18.04;55.47;100865.16;4954570;29;20039;-79
2021/10/20 09:40:51;;;;;;;18.27;12.82;;;;;;;18.18;54.62;100867.69;4954549;29;20047;-81
2021/10/20 09:43:20;;;;;;;21.05;15.52;;;;;;;17.86;55.45;100856.78;4954748;29;20363;-80
2021/10/20 09:45:47;;;;;;;19.45;14.68;;;;;;;18.14;55.44;100860.94;4954309;29;20043;-80
2021/10/20 09:48:22;;;;;;;19.20;15.73;;;;;;;18.58;54.00;100864.75;4954447;29;20051;-80
2021/10/20 09:51:10;;;;;;;18.90;15.98;;;;;;;18.01;54.76;100857.50;4954559;29;20383;-80
2021/10/20 09:53:40;;;;;;;20.85;16.35;;;;;;;18.19;54.63;100864.06;4954432;29;20055;-79
2021/10/20 09:56:19;;;;;;;19.65;16.70;;;;;;;18.10;54.22;100854.19;4953997;28;20527;-80
2021/10/20 09:58:49;;;;;;;24.10;18.23;;;;;;;18.19;54.00;100855.31;4954567;29;20074;-80
2021/10/20 10:01:24;;;;;;;24.70;18.75;;;;;;;17.99;54.53;100856.75;4954007;29;20039;-80
2021/10/20 10:03:53;;;;;;;33.38;19.35;;;;;;;18.36;54.15;100854.94;4954754;29;20047;-80
2021/10/20 10:06:20;;;;;;;29.00;18.13;;;;;;;18.53;53.17;100853.69;4954261;29;20043;-80
2021/10/20 10:08:47;;;;;;;29.17;16.85;;;;;;;18.71;52.71;100843.63;4954432;29;20043;-80
2021/10/20 10:11:14;;;;;;;25.50;17.65;;;;;;;18.61;53.57;100840.78;4954073;29;20047;-80
2021/10/20 10:13:52;;;;;;;29.30;16.52;;;;;;;18.77;52.54;100849.28;4954558;29;20117;-80
2021/10/20 10:16:23;;;;;;;23.63;15.82;;;;;;;18.76;52.27;100838.84;4954101;29;20478;-80
2021/10/20 10:18:55;;;;;;;21.40;17.20;;;;;;;18.77;52.93;100848.44;4954483;29;20078;-80
2021/10/20 10:21:33;;;;;;;25.98;15.82;;;;;;;19.17;51.68;100840.97;4954378;29;20043;-79
2021/10/20 10:24:02;;;;;;;25.05;19.38;;;;;;;18.85;52.17;100830.19;4954250;29;20039;-81
2021/10/20 10:26:37;;;;;;;30.83;19.52;;;;;;;19.15;51.08;100834.97;4954513;29;20039;-79
2021/10/20 10:29:13;;;;;;;30.00;21.35;;;;;;;19.61;50.23;100815.56;4937320;29;20079;-80
2021/10/20 10:31:42;;;;;;;30.58;20.85;;;;;;;19.13;50.86;100818.41;4953510;29;20106;-80
2021/10/20 10:34:19;;;;;;;30.60;22.05;;;;;;;19.21;50.46;100820.44;4955746;28;20090;-85
2021/10/20 10:36:53;;;;;;;32.85;21.75;;;;;;;19.04;50.78;100813.81;4956221;29;20057;-82
2021/10/20 10:39:22;;;;;;;24.30;19.92;;;;;;;19.59;49.79;100804.25;4957563;29;20517;-84
2021/10/20 10:41:49;;;;;;;30.48;21.77;;;;;;;19.82;49.04;100799.81;4957714;29;20502;-83
2021/10/20 10:44:18;;;;;;;36.28;20.55;;;;;;;20.11;48.43;100794.81;4957122;29;20379;-82
2021/10/20 10:46:45;;;;;;;28.52;17.23;;;;;;;20.41;47.65;100791.47;4956824;29;20043;-83
2021/10/20 10:49:23;;;;;;;25.67;16.95;;;;;;;20.45;47.36;100792.03;4958226;29;20075;-84
2021/10/20 10:52:05;;;;;;;16.77;14.82;;;;;;;20.71;46.41;100784.59;4958431;29;20047;-84
2021/10/20 10:54:40;;;;;;;23.67;15.63;;;;;;;20.48;46.74;100783.88;4958043;29;20387;-86
2021/10/20 10:57:14;;;;;;;25.25;17.00;;;;;;;19.61;48.68;100774.09;4957676;29;20046;-84
2021/10/20 11:00:16;;;;;;;;;;;;;;;19.92;48.50;100768.13;4958382;29;20063;-85
2021/10/20 11:02:57;;;;;;;23.90;17.20;;;;;;;19.98;48.02;100763.22;4899294;29;19946;-85
2021/10/20 11:05:27;;;;;;;22.33;17.67;;;;;;;19.34;49.42;100755.94;4942099;29;20084;-81
2021/10/20 11:08:03;;;;;;;29.77;16.30;;;;;;;19.51;48.66;100753.78;4956370;29;20066;-82
2021/10/20 11:10:31;;;;;;;21.42;16.58;;;;;;;19.95;47.86;100752.03;4932381;29;20185;-80
2021/10/20 11:12:58;;;;;;;19.92;14.80;;;;;;;20.09;47.89;100749.09;4944015;29;20039;-80
2021/10/20 11:15:27;;;;;;;19.50;14.93;;;;;;;20.02;48.25;100747.91;4957001;29;20043;-80